createdAt,value
2018-07-26T00:00:48.486Z,22.70
2018-07-26T00:03:16.833Z,22.70
2018-07-26T00:05:45.201Z,22.70
2018-07-26T00:08:13.947Z,22.70
2018-07-26T00:10:42.220Z,22.80
2018-07-26T00:13:10.799Z,22.90
2018-07-26T00:15:39.109Z,23.00
2018-07-26T00:18:07.345Z,23.00
2018-07-26T00:20:36.535Z,23.00
2018-07-26T00:23:04.790Z,23.10
2018-07-26T00:28:01.242Z,23.00
2018-07-26T00:30:29.520Z,23.00
2018-07-26T00:35:25.778Z,22.90
2018-07-26T00:37:54.024Z,22.80
2018-07-26T00:40:22.286Z,22.70
2018-07-26T00:42:50.549Z,22.60
2018-07-26T00:45:19.445Z,22.50
2018-07-26T00:47:47.694Z,22.40
2018-07-26T00:50:16.107Z,22.40
2018-07-26T00:52:44.373Z,22.30
2018-07-26T00:55:12.629Z,22.20
2018-07-26T00:57:40.876Z,22.10
2018-07-26T01:00:09.142Z,22.10
2018-07-26T01:02:37.374Z,22.10
2018-07-26T01:05:05.960Z,22.10
2018-07-26T01:07:34.432Z,22.00
2018-07-26T01:10:02.765Z,22.00
2018-07-26T01:12:31.022Z,22.10
2018-07-26T01:14:59.296Z,22.10
2018-07-26T01:17:27.745Z,22.10
2018-07-26T01:19:56.004Z,22.10
2018-07-26T01:24:52.241Z,22.10
2018-07-26T01:27:20.521Z,22.10
2018-07-26T01:29:49.045Z,22.00
2018-07-26T01:32:18.233Z,22.00
2018-07-26T01:34:46.477Z,22.00
2018-07-26T01:39:42.757Z,22.00
2018-07-26T01:42:11.243Z,22.00
2018-07-26T01:44:39.542Z,21.90
2018-07-26T01:47:07.994Z,21.90
2018-07-26T01:49:36.275Z,21.90
2018-07-26T01:52:04.550Z,21.90
2018-07-26T01:54:32.794Z,21.90
2018-07-26T01:57:01.094Z,22.00
2018-07-26T01:59:29.355Z,21.90
2018-07-26T02:04:25.636Z,21.80
2018-07-26T02:06:53.985Z,21.80
2018-07-26T02:09:22.277Z,21.80
2018-07-26T02:11:51.465Z,21.70
2018-07-26T02:14:25.298Z,21.70
2018-07-26T02:16:53.964Z,21.60
2018-07-26T02:21:50.213Z,21.60
2018-07-26T02:24:18.521Z,21.50
2018-07-26T02:26:46.926Z,21.50
2018-07-26T02:31:44.185Z,21.40
2018-07-26T02:34:13.063Z,21.40
2018-07-26T02:36:41.580Z,21.40
2018-07-26T02:39:10.816Z,21.50
2018-07-26T02:41:39.882Z,21.50
2018-07-26T02:44:08.169Z,21.40
2018-07-26T02:46:36.433Z,21.40
2018-07-26T02:49:04.695Z,21.30
2018-07-26T02:51:32.962Z,21.30
2018-07-26T02:54:01.234Z,21.30
2018-07-26T02:56:29.474Z,21.20
2018-07-26T02:58:57.717Z,21.20
2018-07-26T03:01:26.059Z,21.20
2018-07-26T03:03:54.299Z,21.20
2018-07-26T03:06:22.540Z,21.10
2018-07-26T03:08:50.816Z,21.10
2018-07-26T03:11:19.098Z,21.10
2018-07-26T03:13:47.329Z,21.00
2018-07-26T03:16:15.595Z,21.00
2018-07-26T03:18:43.829Z,21.00
2018-07-26T03:21:12.291Z,20.90
2018-07-26T03:23:40.558Z,20.90
2018-07-26T03:26:08.858Z,20.90
2018-07-26T03:28:37.121Z,20.90
2018-07-26T03:31:05.397Z,20.80
2018-07-26T03:33:33.682Z,20.80
2018-07-26T03:36:01.936Z,20.80
2018-07-26T03:40:58.573Z,20.80
2018-07-26T03:43:26.861Z,20.80
2018-07-26T03:45:55.117Z,20.80
2018-07-26T03:48:23.389Z,20.70
2018-07-26T03:50:51.657Z,20.70
2018-07-26T03:53:19.950Z,20.70
2018-07-26T03:55:48.205Z,20.70
2018-07-26T03:58:16.666Z,20.70
2018-07-26T04:00:44.922Z,20.70
2018-07-26T04:03:13.242Z,20.80
2018-07-26T04:05:42.301Z,20.80
2018-07-26T04:08:10.578Z,20.80
2018-07-26T04:10:38.833Z,20.90
2018-07-26T04:13:07.123Z,20.90
2018-07-26T04:15:35.410Z,20.90
2018-07-26T04:18:07.469Z,20.90
2018-07-26T04:20:35.862Z,20.90
2018-07-26T04:23:04.253Z,20.90
2018-07-26T04:25:32.814Z,20.90
2018-07-26T04:28:02.397Z,21.00
2018-07-26T04:30:30.978Z,21.00
2018-07-26T04:33:00.070Z,21.10
2018-07-26T04:35:28.346Z,21.20
2018-07-26T04:37:56.609Z,21.30
2018-07-26T04:40:24.854Z,21.30
2018-07-26T04:42:53.125Z,21.40
2018-07-26T04:45:21.383Z,21.50
2018-07-26T04:47:49.641Z,21.60
2018-07-26T04:50:17.886Z,21.70
2018-07-26T04:52:46.304Z,21.70
2018-07-26T04:55:15.324Z,21.80
2018-07-26T04:57:43.797Z,21.90
2018-07-26T05:02:40.131Z,22.00
2018-07-26T05:05:08.406Z,22.10
2018-07-26T05:07:37.453Z,22.30
2018-07-26T05:10:05.729Z,22.50
2018-07-26T05:12:33.993Z,22.70
2018-07-26T05:15:02.361Z,22.80
2018-07-26T05:17:30.678Z,23.00
2018-07-26T05:19:59.374Z,23.20
2018-07-26T05:22:27.691Z,23.40
2018-07-26T05:24:56.161Z,23.30
2018-07-26T05:29:52.711Z,23.00
2018-07-26T05:32:21.010Z,23.10
2018-07-26T05:34:49.237Z,23.30
2018-07-26T05:37:17.516Z,23.60
2018-07-26T05:39:45.762Z,23.90
2018-07-26T05:42:14.038Z,24.10
2018-07-26T05:44:42.680Z,24.40
2018-07-26T05:47:11.010Z,24.50
2018-07-26T05:49:39.297Z,24.70
2018-07-26T05:52:07.680Z,24.80
2018-07-26T05:54:36.710Z,24.90
2018-07-26T05:57:06.415Z,25.10
2018-07-26T05:59:34.777Z,25.30
2018-07-26T06:02:03.055Z,25.40
2018-07-26T06:04:31.321Z,25.60
2018-07-26T06:06:59.678Z,25.60
2018-07-26T06:09:27.978Z,25.70
2018-07-26T06:11:56.537Z,25.70
2018-07-26T06:14:25.485Z,25.80
2018-07-26T06:16:53.730Z,25.90
2018-07-26T06:19:22.022Z,26.00
2018-07-26T06:21:50.604Z,26.10
2018-07-26T06:24:19.117Z,26.20
2018-07-26T06:26:47.346Z,26.30
2018-07-26T06:29:15.602Z,26.40
2018-07-26T06:31:43.881Z,26.60
2018-07-26T06:34:12.122Z,26.70
2018-07-26T06:36:40.421Z,26.80
2018-07-26T06:39:10.777Z,26.90
2018-07-26T06:41:41.546Z,27.10
2018-07-26T06:44:10.427Z,27.10
2018-07-26T06:46:38.780Z,27.10
2018-07-26T06:49:07.766Z,27.40
2018-07-26T06:51:36.474Z,27.30
2018-07-26T06:54:04.721Z,27.20
2018-07-26T06:56:33.152Z,27.30
2018-07-26T06:59:01.462Z,27.60
2018-07-26T07:01:29.786Z,27.70
2018-07-26T07:03:58.044Z,27.80
2018-07-26T07:06:26.472Z,28.10
2018-07-26T07:08:55.020Z,28.20
2018-07-26T07:11:23.326Z,28.40
2018-07-26T07:13:51.621Z,28.40
2018-07-26T07:16:20.602Z,28.30
2018-07-26T07:18:48.991Z,28.60
2018-07-26T07:21:17.741Z,28.70
2018-07-26T07:23:46.365Z,28.70
2018-07-26T07:26:14.713Z,28.90
2018-07-26T07:28:43.717Z,29.20
2018-07-26T07:31:11.966Z,29.30
2018-07-26T07:33:40.255Z,29.30
2018-07-26T07:36:09.007Z,29.40
2018-07-26T07:38:37.935Z,29.60
2018-07-26T07:41:06.560Z,29.70
2018-07-26T07:43:34.961Z,30.20
2018-07-26T07:46:03.466Z,30.30
2018-07-26T07:48:32.676Z,30.30
2018-07-26T07:51:00.981Z,30.40
2018-07-26T07:53:29.245Z,30.90
2018-07-26T07:55:58.013Z,31.20
2018-07-26T07:58:26.634Z,31.60
2018-07-26T08:00:55.368Z,31.70
2018-07-26T08:03:24.321Z,31.90
2018-07-26T08:05:53.375Z,32.50
2018-07-26T08:08:22.771Z,33.00
2018-07-26T08:10:51.045Z,33.80
2018-07-26T08:13:19.318Z,34.60
2018-07-26T08:15:47.643Z,35.60
2018-07-26T08:18:15.914Z,36.80
2018-07-26T08:20:44.173Z,37.80
2018-07-26T08:23:12.437Z,38.80
2018-07-26T08:25:40.691Z,38.30
2018-07-26T08:28:08.978Z,39.00
2018-07-26T08:30:37.230Z,39.00
2018-07-26T08:33:05.499Z,39.20
2018-07-26T08:35:33.805Z,39.60
2018-07-26T08:38:02.066Z,39.70
2018-07-26T08:40:30.310Z,38.80
2018-07-26T08:42:58.732Z,38.10
2018-07-26T08:45:27.362Z,37.40
2018-07-26T08:47:56.067Z,37.10
2018-07-26T08:50:24.305Z,38.00
2018-07-26T08:52:52.601Z,38.80
2018-07-26T08:55:20.891Z,39.60
2018-07-26T08:57:49.212Z,40.70
2018-07-26T09:00:19.082Z,40.90
2018-07-26T09:02:47.738Z,40.30
2018-07-26T09:05:16.260Z,40.60
2018-07-26T09:07:44.846Z,41.40
2018-07-26T09:10:13.521Z,42.40
2018-07-26T09:12:42.435Z,42.80
2018-07-26T09:15:10.703Z,42.00
2018-07-26T09:17:38.982Z,41.80
2018-07-26T09:20:07.279Z,41.50
2018-07-26T09:22:35.686Z,42.00
2018-07-26T09:25:04.018Z,42.50
2018-07-26T09:27:32.262Z,42.30
2018-07-26T09:30:00.547Z,42.10
2018-07-26T09:32:28.823Z,42.60
2018-07-26T09:34:57.079Z,43.30
2018-07-26T09:37:25.320Z,42.40
2018-07-26T09:39:53.610Z,42.40
2018-07-26T09:42:22.395Z,42.90
2018-07-26T09:44:51.138Z,42.60
2018-07-26T09:47:19.460Z,42.30
2018-07-26T09:49:47.728Z,42.40
2018-07-26T09:52:16.247Z,40.30
2018-07-26T09:54:45.060Z,40.70
2018-07-26T09:57:13.322Z,40.90
2018-07-26T09:59:41.819Z,41.80
2018-07-26T10:02:10.102Z,42.00
2018-07-26T10:04:38.730Z,42.50
2018-07-26T10:07:06.999Z,42.00
2018-07-26T10:09:35.262Z,41.80
2018-07-26T10:12:03.503Z,41.40
2018-07-26T10:14:31.775Z,41.30
2018-07-26T10:17:00.019Z,41.50
2018-07-26T10:19:28.346Z,41.70
2018-07-26T10:21:56.610Z,41.70
2018-07-26T10:24:24.871Z,41.50
2018-07-26T10:26:53.142Z,40.00
2018-07-26T10:29:21.417Z,40.40
2018-07-26T10:31:49.657Z,40.40
2018-07-26T10:34:17.914Z,40.00
2018-07-26T10:36:46.157Z,40.10
2018-07-26T10:39:14.425Z,40.30
2018-07-26T10:41:42.653Z,40.70
2018-07-26T10:44:10.920Z,41.10
2018-07-26T10:46:39.200Z,41.40
2018-07-26T10:49:07.927Z,41.30
2018-07-26T10:51:36.686Z,41.30
2018-07-26T10:54:05.004Z,41.30
2018-07-26T10:56:33.241Z,41.10
2018-07-26T11:01:29.473Z,39.30
2018-07-26T11:03:57.730Z,38.20
2018-07-26T11:06:26.693Z,37.00
2018-07-26T11:08:55.538Z,36.10
2018-07-26T11:13:52.132Z,35.40
2018-07-26T11:16:20.370Z,35.20
2018-07-26T11:18:48.777Z,35.20
2018-07-26T11:21:17.034Z,34.90
2018-07-26T11:23:45.286Z,34.40
2018-07-26T11:26:13.529Z,34.20
2018-07-26T11:28:42.670Z,34.00
2018-07-26T11:31:10.942Z,33.90
2018-07-26T11:33:39.217Z,33.80
2018-07-26T11:36:07.477Z,33.70
2018-07-26T11:38:36.516Z,33.60
2018-07-26T11:41:04.810Z,33.40
2018-07-26T11:43:33.135Z,33.30
2018-07-26T11:46:01.523Z,33.20
2018-07-26T11:48:30.641Z,33.10
2018-07-26T11:50:59.816Z,33.10
2018-07-26T11:53:28.255Z,33.10
2018-07-26T11:55:57.379Z,33.20
2018-07-26T11:58:26.148Z,33.20
2018-07-26T12:00:55.669Z,33.20
2018-07-26T12:03:24.501Z,33.40
2018-07-26T12:05:52.818Z,33.20
2018-07-26T12:08:22.123Z,33.10
2018-07-26T12:10:50.398Z,32.90
2018-07-26T12:13:18.707Z,32.90
2018-07-26T12:15:46.970Z,33.00
2018-07-26T12:18:15.217Z,33.00
2018-07-26T12:20:43.479Z,33.00
2018-07-26T12:23:12.633Z,33.00
2018-07-26T12:25:41.341Z,32.90
2018-07-26T12:28:09.740Z,32.90
2018-07-26T12:30:38.018Z,32.90
2018-07-26T12:33:06.291Z,32.90
2018-07-26T12:35:34.592Z,32.90
2018-07-26T12:38:02.846Z,32.90
2018-07-26T12:40:31.270Z,32.90
2018-07-26T12:43:01.280Z,32.80
2018-07-26T12:45:29.570Z,32.70
2018-07-26T12:47:57.818Z,32.70
2018-07-26T12:52:54.082Z,32.80
2018-07-26T12:55:22.347Z,32.80
2018-07-26T12:57:51.443Z,32.80
2018-07-26T13:00:20.299Z,32.90
2018-07-26T13:02:48.633Z,32.90
2018-07-26T13:05:17.091Z,33.00
2018-07-26T13:07:45.367Z,33.00
2018-07-26T13:12:42.793Z,32.80
2018-07-26T13:15:11.158Z,32.90
2018-07-26T13:17:39.680Z,33.00
2018-07-26T13:20:09.062Z,33.20
2018-07-26T13:22:37.365Z,33.20
2018-07-26T13:25:06.483Z,33.30
2018-07-26T13:34:59.953Z,33.10
2018-07-26T13:37:28.185Z,33.10
2018-07-26T13:39:56.807Z,33.00
2018-07-26T13:42:25.758Z,33.00
2018-07-26T13:44:54.153Z,33.00
2018-07-26T13:47:23.413Z,33.00
2018-07-26T13:49:51.933Z,33.00
2018-07-26T13:52:21.011Z,33.10
2018-07-26T13:54:49.233Z,33.00
2018-07-26T13:57:18.045Z,33.00
2018-07-26T13:59:47.089Z,33.10
2018-07-26T14:02:15.413Z,33.20
2018-07-26T14:04:43.674Z,33.30
2018-07-26T14:07:11.923Z,33.40
2018-07-26T14:09:40.186Z,33.50
2018-07-26T14:12:09.211Z,33.40
2018-07-26T14:14:38.753Z,33.40
2018-07-26T14:17:08.167Z,33.40
2018-07-26T14:19:36.986Z,33.30
2018-07-26T14:22:06.050Z,33.40
2018-07-26T14:24:34.302Z,33.30
2018-07-26T14:27:03.681Z,33.40
2018-07-26T14:29:32.654Z,33.50
2018-07-26T14:32:00.884Z,33.60
2018-07-26T14:34:30.164Z,33.60
2018-07-26T14:36:58.474Z,33.50
2018-07-26T14:39:26.740Z,33.50
2018-07-26T14:41:55.013Z,33.50
2018-07-26T14:44:23.270Z,33.60
2018-07-26T14:46:51.536Z,33.60
2018-07-26T14:49:19.805Z,33.80
2018-07-26T14:51:48.173Z,33.80
2018-07-26T14:54:16.426Z,33.80
2018-07-26T14:56:44.775Z,33.80
2018-07-26T14:59:13.669Z,33.70
2018-07-26T15:01:42.281Z,33.60
2018-07-26T15:04:10.622Z,33.50
2018-07-26T15:06:38.907Z,33.50
2018-07-26T15:09:08.997Z,33.70
2018-07-26T15:11:37.451Z,33.60
2018-07-26T15:14:05.761Z,33.50
2018-07-26T15:16:34.008Z,33.50
2018-07-26T15:19:02.458Z,33.40
2018-07-26T15:21:31.417Z,33.40
2018-07-26T15:23:59.678Z,33.50
2018-07-26T15:26:28.410Z,33.50
2018-07-26T15:28:56.997Z,33.60
2018-07-26T15:31:25.793Z,33.80
2018-07-26T15:33:54.178Z,33.80
2018-07-26T15:36:22.430Z,33.80
2018-07-26T15:38:50.684Z,33.90
2018-07-26T15:41:19.200Z,34.00
2018-07-26T15:43:47.462Z,34.00
2018-07-26T15:46:16.106Z,34.00
2018-07-26T15:48:44.513Z,34.00
2018-07-26T15:53:41.247Z,33.60
2018-07-26T15:56:09.549Z,33.40
2018-07-26T15:58:38.498Z,33.30
2018-07-26T16:01:06.789Z,33.20
2018-07-26T16:03:35.280Z,33.20
2018-07-26T16:06:03.615Z,33.10
2018-07-26T16:08:31.846Z,33.00
2018-07-26T16:11:00.953Z,33.00
2018-07-26T16:13:29.776Z,33.20
2018-07-26T16:15:58.961Z,33.20
2018-07-26T16:18:27.814Z,33.30
2018-07-26T16:20:56.149Z,33.40
2018-07-26T16:23:25.906Z,33.40
2018-07-26T16:25:54.362Z,33.40
2018-07-26T16:28:23.253Z,33.30
2018-07-26T16:30:51.701Z,33.40
2018-07-26T16:33:19.929Z,33.40
2018-07-26T16:35:48.278Z,33.40
2018-07-26T16:38:16.529Z,33.30
2018-07-26T16:40:44.788Z,33.20
2018-07-26T16:43:16.076Z,33.30
2018-07-26T16:45:44.314Z,33.30
2018-07-26T16:48:12.639Z,33.30
2018-07-26T16:50:40.886Z,33.40
2018-07-26T16:53:09.165Z,33.40
2018-07-26T16:55:37.389Z,33.40
2018-07-26T16:58:05.840Z,33.30
2018-07-26T17:00:35.039Z,33.30
2018-07-26T17:03:03.369Z,33.30
2018-07-26T17:05:31.614Z,33.30
2018-07-26T17:07:59.872Z,33.20
2018-07-26T17:10:28.119Z,33.20
2018-07-26T17:12:56.390Z,33.20
2018-07-26T17:15:24.646Z,33.20
2018-07-26T17:17:52.897Z,33.10
2018-07-26T17:20:21.182Z,33.10
2018-07-26T17:22:49.637Z,33.00
2018-07-26T17:25:22.999Z,33.00
2018-07-26T17:27:51.421Z,33.00
2018-07-26T17:30:20.493Z,33.00
2018-07-26T17:32:49.203Z,33.00
2018-07-26T17:35:17.707Z,32.90
2018-07-26T17:37:46.297Z,32.90
2018-07-26T17:40:14.622Z,32.80
2018-07-26T17:45:11.824Z,32.80
2018-07-26T17:47:40.623Z,32.70
2018-07-26T17:50:10.630Z,32.70
2018-07-26T17:52:39.217Z,32.60
2018-07-26T17:55:07.899Z,32.60
2018-07-26T17:57:36.170Z,32.60
2018-07-26T18:00:07.030Z,32.50
2018-07-26T18:02:35.399Z,32.40
2018-07-26T18:05:03.870Z,32.40
2018-07-26T18:07:32.270Z,32.30
2018-07-26T18:10:00.509Z,32.30
2018-07-26T18:12:28.779Z,32.20
2018-07-26T18:17:25.181Z,32.10
2018-07-26T18:19:53.450Z,32.00
2018-07-26T18:22:21.702Z,32.00
2018-07-26T18:24:50.781Z,31.90
2018-07-26T18:27:19.074Z,31.80
2018-07-26T18:32:15.350Z,31.70
2018-07-26T18:39:39.826Z,31.60
2018-07-26T18:42:08.094Z,31.50
2018-07-26T18:44:36.382Z,31.40
2018-07-26T18:47:04.628Z,31.30
2018-07-26T18:49:32.918Z,31.30
2018-07-26T18:52:01.115Z,31.10
2018-07-26T18:54:29.337Z,31.10
2018-07-26T18:56:57.591Z,31.00
2018-07-26T19:01:53.839Z,30.80
2018-07-26T19:06:50.110Z,30.70
2018-07-26T19:09:18.517Z,30.60
2018-07-26T19:11:46.767Z,30.50
2018-07-26T19:14:15.853Z,30.40
2018-07-26T19:16:44.125Z,30.30
2018-07-26T19:19:12.673Z,30.20
2018-07-26T19:21:40.946Z,30.10
2018-07-26T19:24:09.242Z,29.90
2018-07-26T19:26:38.849Z,29.80
2018-07-26T19:29:07.868Z,29.60
2018-07-26T19:31:36.573Z,29.50
2018-07-26T19:34:04.947Z,29.40
2018-07-26T19:36:33.923Z,29.20
2018-07-26T19:39:02.170Z,29.10
2018-07-26T19:41:30.417Z,29.00
2018-07-26T19:43:58.750Z,28.90
2018-07-26T19:46:27.021Z,28.70
2018-07-26T19:48:55.286Z,28.60
2018-07-26T19:51:23.613Z,28.40
2018-07-26T19:53:51.878Z,28.20
2018-07-26T19:56:20.156Z,28.10
2018-07-26T19:58:48.419Z,27.90
2018-07-26T20:03:44.945Z,27.70
2018-07-26T20:06:13.334Z,27.40
2018-07-26T20:08:41.597Z,27.00
2018-07-26T20:11:10.017Z,26.70
2018-07-26T20:13:38.949Z,26.50
2018-07-26T20:16:07.185Z,26.30
2018-07-26T20:18:35.444Z,26.40
2018-07-26T20:21:03.768Z,26.40
2018-07-26T20:23:32.049Z,26.40
2018-07-26T20:26:00.381Z,26.40
2018-07-26T20:30:56.733Z,26.20
2018-07-26T20:33:25.094Z,26.10
2018-07-26T20:35:53.398Z,26.10
2018-07-26T20:38:21.638Z,26.00
2018-07-26T20:40:49.922Z,26.00
2018-07-26T20:43:19.941Z,25.90
2018-07-26T20:45:48.363Z,25.80
2018-07-26T20:48:16.652Z,25.70
2018-07-26T20:50:44.927Z,25.70
2018-07-26T20:53:13.182Z,25.60
2018-07-26T20:55:41.651Z,25.60
2018-07-26T20:58:09.928Z,25.50
2018-07-26T21:00:38.251Z,25.50
2018-07-26T21:03:06.515Z,25.50
2018-07-26T21:05:35.634Z,25.50
2018-07-26T21:08:04.573Z,25.40
2018-07-26T21:10:32.803Z,25.40
2018-07-26T21:13:01.150Z,25.40
2018-07-26T21:15:29.414Z,25.40
2018-07-26T21:17:57.651Z,25.40
2018-07-26T21:20:25.979Z,25.30
2018-07-26T21:22:55.221Z,25.30
2018-07-26T21:25:23.437Z,25.20
2018-07-26T21:27:51.737Z,25.20
2018-07-26T21:30:20.001Z,25.20
2018-07-26T21:32:48.254Z,25.10
2018-07-26T21:35:16.533Z,25.10
2018-07-26T21:37:44.888Z,25.10
2018-07-26T21:40:14.040Z,25.10
2018-07-26T21:42:43.125Z,25.10
2018-07-26T21:45:11.407Z,25.10
2018-07-26T21:47:40.093Z,25.00
2018-07-26T21:50:08.368Z,25.00
2018-07-26T21:52:36.597Z,25.00
2018-07-26T21:55:05.306Z,24.90
2018-07-26T21:57:33.542Z,24.90
2018-07-26T22:00:01.813Z,24.80
2018-07-26T22:02:30.127Z,24.80
2018-07-26T22:04:58.360Z,24.70
2018-07-26T22:07:26.614Z,24.50
2018-07-26T22:09:55.319Z,24.40
2018-07-26T22:12:24.443Z,24.30
2018-07-26T22:14:52.709Z,24.10
2018-07-26T22:17:21.070Z,24.00
2018-07-26T22:19:49.338Z,23.90
2018-07-26T22:22:18.478Z,23.80
2018-07-26T22:24:46.776Z,23.70
2018-07-26T22:27:15.197Z,23.70
2018-07-26T22:32:12.565Z,23.60
2018-07-26T22:34:40.891Z,23.60
2018-07-26T22:37:09.625Z,23.50
2018-07-26T22:39:38.749Z,23.50
2018-07-26T22:42:07.549Z,23.50
2018-07-26T22:44:36.499Z,23.40
2018-07-26T22:47:04.949Z,23.40
2018-07-26T22:49:33.211Z,23.40
2018-07-26T22:52:01.461Z,23.40
2018-07-26T22:54:29.721Z,23.30
2018-07-26T22:56:59.605Z,23.30
2018-07-26T22:59:28.718Z,23.30
2018-07-26T23:01:56.973Z,23.30
2018-07-26T23:04:25.230Z,23.30
2018-07-26T23:06:53.519Z,23.30
2018-07-26T23:09:21.861Z,23.30
2018-07-26T23:11:50.609Z,23.20
2018-07-26T23:14:18.926Z,23.20
2018-07-26T23:19:15.229Z,23.00
2018-07-26T23:21:43.596Z,23.00
2018-07-26T23:24:11.859Z,22.90
2018-07-26T23:26:40.365Z,22.90
2018-07-26T23:29:08.630Z,22.80
2018-07-26T23:31:36.895Z,22.80
2018-07-26T23:34:05.158Z,22.70
2018-07-26T23:36:33.401Z,22.70
2018-07-26T23:39:01.687Z,22.70
2018-07-26T23:41:29.930Z,22.70
2018-07-26T23:43:58.182Z,22.70
2018-07-26T23:46:26.444Z,22.80
2018-07-26T23:48:55.524Z,22.80
2018-07-26T23:51:24.082Z,22.90
2018-07-26T23:53:52.321Z,22.90
2018-07-26T23:56:21.221Z,22.90
2018-07-26T23:58:49.533Z,22.90
